createdAt,value
2022-11-13T00:01:25.059Z,102290.22
2022-11-13T00:03:53.019Z,102283.25
2022-11-13T00:06:22.227Z,102284.22
2022-11-13T00:08:54.277Z,102259.66
2022-11-13T00:11:22.264Z,102274.69
2022-11-13T00:13:50.786Z,102264.13
2022-11-13T00:16:20.399Z,102268.63
2022-11-13T00:18:49.320Z,102259.78
2022-11-13T00:21:18.859Z,102260.66
2022-11-13T00:23:48.387Z,102261.72
2022-11-13T00:26:17.963Z,102261.69
2022-11-13T00:28:46.694Z,102257.47
2022-11-13T00:31:16.989Z,102253.97
2022-11-13T00:34:09.096Z,102240.94
2022-11-13T00:36:32.808Z,102235.03
2022-11-13T00:39:02.002Z,102232.44
2022-11-13T00:41:29.951Z,102227.22
2022-11-13T00:43:57.809Z,102219.34
2022-11-13T00:46:25.678Z,102215.88
2022-11-13T00:48:56.123Z,102211.50
2022-11-13T00:51:24.387Z,102210.56
2022-11-13T00:53:52.380Z,102215.78
2022-11-13T00:56:21.690Z,102206.09
2022-11-13T00:58:49.601Z,102190.34
2022-11-13T01:01:19.955Z,102198.25
2022-11-13T01:03:47.901Z,102202.59
2022-11-13T01:06:18.733Z,102201.06
2022-11-13T01:08:46.942Z,102196.72
2022-11-13T01:11:17.391Z,102194.13
2022-11-13T01:13:50.080Z,102183.59
2022-11-13T01:16:19.360Z,102189.78
2022-11-13T01:18:47.648Z,102185.44
2022-11-13T01:21:17.433Z,102179.25
2022-11-13T01:23:45.469Z,102188.06
2022-11-13T01:26:16.283Z,102173.13
2022-11-13T01:28:46.955Z,102166.16
2022-11-13T01:31:17.263Z,102159.19
2022-11-13T01:33:45.778Z,102158.31
2022-11-13T01:36:15.492Z,102155.69
2022-11-13T01:38:43.663Z,102146.03
2022-11-13T01:41:22.944Z,102145.19
2022-11-13T01:43:55.229Z,102139.09
2022-11-13T01:46:30.087Z,102126.81
2022-11-13T01:49:15.705Z,102131.19
2022-11-13T01:51:48.629Z,102132.06
2022-11-13T01:54:20.465Z,102121.53
2022-11-13T01:56:56.007Z,102119.78
2022-11-13T01:59:28.201Z,102115.38
2022-11-13T02:01:56.286Z,102096.97
2022-11-13T02:04:24.587Z,102102.28
2022-11-13T02:06:55.319Z,102086.47
2022-11-13T02:09:27.459Z,102087.38
2022-11-13T02:11:55.823Z,102088.28
2022-11-13T02:14:28.885Z,102084.78
2022-11-13T02:17:01.189Z,102074.25
2022-11-13T02:19:32.612Z,102068.13
2022-11-13T02:22:08.127Z,102059.38
2022-11-13T02:24:45.013Z,102069.03
2022-11-13T02:27:21.325Z,102071.63
2022-11-13T02:29:49.313Z,102065.50
2022-11-13T02:32:17.220Z,102062.88
2022-11-13T02:34:45.028Z,102054.94
2022-11-13T02:37:12.956Z,102050.56
2022-11-13T02:39:42.328Z,102045.28
2022-11-13T02:42:11.283Z,102053.13
2022-11-13T02:44:49.749Z,102037.31
2022-11-13T02:47:17.613Z,102037.31
2022-11-13T02:49:45.491Z,102039.13
2022-11-13T02:52:13.447Z,102038.28
2022-11-13T02:54:42.795Z,102027.78
2022-11-13T02:57:12.429Z,102019.88
2022-11-13T02:59:40.287Z,102025.16
2022-11-13T03:02:08.502Z,102025.16
2022-11-13T03:05:10.219Z,102018.13
2022-11-13T03:07:27.991Z,102033.84
2022-11-13T03:09:57.480Z,102026.88
2022-11-13T03:12:25.399Z,102031.19
2022-11-13T03:14:53.212Z,102026.84
2022-11-13T03:17:21.101Z,102033.00
2022-11-13T03:19:52.340Z,102029.50
2022-11-13T03:22:20.144Z,102023.38
2022-11-13T03:24:48.241Z,102026.03
2022-11-13T03:27:17.371Z,102020.75
2022-11-13T03:29:45.355Z,102024.25
2022-11-13T03:32:13.419Z,102019.00
2022-11-13T03:34:41.232Z,102021.53
2022-11-13T03:37:09.347Z,102026.81
2022-11-13T03:39:38.570Z,102031.13
2022-11-13T03:42:06.587Z,102032.00
2022-11-13T03:44:35.759Z,102018.00
2022-11-13T03:47:05.634Z,102021.56
2022-11-13T03:49:33.682Z,102028.53
2022-11-13T03:52:01.444Z,102026.69
2022-11-13T03:54:29.382Z,102017.03
2022-11-13T03:56:57.502Z,102015.25
2022-11-13T03:59:26.506Z,102037.94
2022-11-13T04:01:56.644Z,102038.03
2022-11-13T04:04:24.489Z,102026.66
2022-11-13T04:06:52.480Z,102037.16
2022-11-13T04:09:20.515Z,102035.41
2022-11-13T04:11:48.279Z,102038.91
2022-11-13T04:14:17.331Z,102033.63
2022-11-13T04:16:45.315Z,102014.41
2022-11-13T04:19:17.608Z,102023.13
2022-11-13T04:21:45.444Z,102023.94
2022-11-13T04:24:16.390Z,102022.13
2022-11-13T04:26:44.316Z,102013.38
2022-11-13T04:29:12.184Z,102023.03
2022-11-13T04:31:40.130Z,102001.31
2022-11-13T04:34:09.125Z,101988.25
2022-11-13T04:36:38.343Z,102006.69
2022-11-13T04:39:06.547Z,102004.84
2022-11-13T04:41:55.336Z,102004.81
2022-11-13T04:44:23.692Z,102000.41
2022-11-13T04:46:51.649Z,102002.06
2022-11-13T04:49:19.856Z,101998.56
2022-11-13T04:51:49.285Z,101989.91
2022-11-13T04:54:17.283Z,101996.94
2022-11-13T04:56:45.278Z,101989.94
2022-11-13T04:59:13.139Z,101980.34
2022-11-13T05:01:41.063Z,101974.22
2022-11-13T05:04:12.051Z,101976.81
2022-11-13T05:06:42.162Z,101968.09
2022-11-13T05:09:12.164Z,101975.09
2022-11-13T05:11:40.230Z,101976.81
2022-11-13T05:14:08.233Z,101972.44
2022-11-13T05:16:36.883Z,101979.34
2022-11-13T05:19:06.927Z,101974.06
2022-11-13T05:21:35.370Z,101979.22
2022-11-13T05:24:03.787Z,101977.59
2022-11-13T05:26:33.443Z,101969.63
2022-11-13T05:29:03.026Z,101967.03
2022-11-13T05:31:30.907Z,101959.06
2022-11-13T05:34:04.182Z,101962.50
2022-11-13T05:36:33.756Z,101965.09
2022-11-13T05:39:01.673Z,101952.00
2022-11-13T05:41:29.759Z,101935.53
2022-11-13T05:43:59.983Z,101942.56
2022-11-13T05:46:30.490Z,101937.28
2022-11-13T05:49:00.493Z,101934.56
2022-11-13T05:51:29.791Z,101936.38
2022-11-13T05:53:57.783Z,101935.47
2022-11-13T05:56:27.719Z,101927.50
2022-11-13T05:58:56.346Z,101920.44
2022-11-13T06:01:28.667Z,101910.00
2022-11-13T06:03:57.912Z,101916.09
2022-11-13T06:06:27.160Z,101915.97
2022-11-13T06:08:56.500Z,101910.69
2022-11-13T06:11:26.129Z,101909.69
2022-11-13T06:13:55.103Z,101905.34
2022-11-13T06:16:25.015Z,101892.34
2022-11-13T06:18:56.338Z,101899.38
2022-11-13T06:21:25.937Z,101893.97
2022-11-13T06:23:54.731Z,101899.16
2022-11-13T06:26:24.700Z,101889.59
2022-11-13T06:28:52.747Z,101890.41
2022-11-13T06:31:22.229Z,101901.69
2022-11-13T06:33:50.304Z,101902.41
2022-11-13T06:36:21.444Z,101904.22
2022-11-13T06:38:49.881Z,101898.06
2022-11-13T06:41:20.042Z,101889.25
2022-11-13T06:43:48.458Z,101873.44
2022-11-13T06:46:18.985Z,101870.94
2022-11-13T06:48:47.463Z,101873.56
2022-11-13T06:51:17.242Z,101875.31
2022-11-13T06:53:46.632Z,101882.22
2022-11-13T06:56:15.483Z,101864.88
2022-11-13T06:58:44.841Z,101877.84
2022-11-13T07:01:15.209Z,101869.94
2022-11-13T07:03:43.671Z,101868.19
2022-11-13T07:06:14.364Z,101848.16
2022-11-13T07:08:42.819Z,101854.41
2022-11-13T07:11:13.829Z,101848.28
2022-11-13T07:13:42.325Z,101854.66
2022-11-13T07:16:19.089Z,101853.59
2022-11-13T07:18:51.076Z,101863.25
2022-11-13T07:21:19.099Z,101858.81
2022-11-13T07:23:49.114Z,101859.84
2022-11-13T07:26:19.141Z,101857.31
2022-11-13T07:28:47.272Z,101840.69
2022-11-13T07:31:16.781Z,101851.16
2022-11-13T07:33:45.405Z,101836.28
2022-11-13T07:36:19.211Z,101822.34
2022-11-13T07:38:46.973Z,101844.25
2022-11-13T07:41:14.898Z,101828.50
2022-11-13T07:43:46.517Z,101824.16
2022-11-13T07:46:14.398Z,101810.31
2022-11-13T07:48:42.367Z,101810.34
2022-11-13T07:51:10.253Z,101803.44
2022-11-13T07:53:39.074Z,101792.09
2022-11-13T07:56:07.976Z,101802.63
2022-11-13T07:58:35.814Z,101802.66
2022-11-13T08:01:06.485Z,101802.66
2022-11-13T08:03:34.495Z,101795.69
2022-11-13T08:06:03.915Z,101793.06
2022-11-13T08:08:32.554Z,101779.06
2022-11-13T08:11:05.848Z,101784.31
2022-11-13T08:13:34.281Z,101782.56
2022-11-13T08:16:02.642Z,101779.06
2022-11-13T08:18:32.739Z,101779.03
2022-11-13T08:21:03.498Z,101772.03
2022-11-13T08:23:34.647Z,101775.53
2022-11-13T08:26:06.550Z,101772.91
2022-11-13T08:28:35.802Z,101753.66
2022-11-13T08:31:05.871Z,101763.25
2022-11-13T08:33:35.977Z,101757.09
2022-11-13T08:36:07.970Z,101750.09
2022-11-13T08:38:36.003Z,101730.78
2022-11-13T08:41:09.424Z,101731.63
2022-11-13T08:43:37.833Z,101731.63
2022-11-13T08:46:05.735Z,101723.72
2022-11-13T08:48:38.414Z,101717.53
2022-11-13T08:51:12.391Z,101715.75
2022-11-13T08:53:41.614Z,101699.91
2022-11-13T08:56:10.105Z,101703.81
2022-11-13T08:58:38.787Z,101672.88
2022-11-13T09:01:07.308Z,101656.38
2022-11-13T09:03:37.449Z,101647.03
2022-11-13T09:06:08.651Z,101622.97
2022-11-13T09:08:36.849Z,101624.22
2022-11-13T09:11:05.763Z,101599.25
2022-11-13T09:13:35.834Z,101583.06
2022-11-13T09:16:06.844Z,101597.41
2022-11-13T09:18:34.903Z,101575.63
2022-11-13T09:21:03.817Z,101559.59
2022-11-13T09:23:33.112Z,101560.72
2022-11-13T09:26:03.169Z,101565.44
2022-11-13T09:28:31.644Z,101572.09
2022-11-13T09:30:59.902Z,101577.41
2022-11-13T09:33:27.920Z,101583.75
2022-11-13T09:35:55.876Z,101597.78
2022-11-13T09:38:24.193Z,101615.88
2022-11-13T09:40:58.617Z,101641.06
2022-11-13T09:43:32.391Z,101656.06
2022-11-13T09:46:03.687Z,101668.72
2022-11-13T09:48:35.434Z,101695.28
2022-11-13T09:51:28.076Z,101722.84
2022-11-13T09:53:56.714Z,101755.94
2022-11-13T09:56:32.476Z,101803.66
2022-11-13T09:59:16.791Z,101830.28
2022-11-13T10:02:04.377Z,101889.13
2022-11-13T10:04:47.102Z,102022.16
2022-11-13T10:07:23.648Z,102374.56
2022-11-13T10:10:03.267Z,102905.91
2022-11-13T10:12:39.350Z,102976.72
2022-11-13T10:15:07.633Z,102435.84
2022-11-13T10:17:39.968Z,101888.53
2022-11-13T10:20:15.362Z,101492.19
2022-11-13T10:22:51.210Z,101296.09
2022-11-13T10:25:21.682Z,101284.50
2022-11-13T10:27:55.136Z,101311.66
2022-11-13T10:30:25.974Z,101357.66
2022-11-13T10:32:57.939Z,101408.84
2022-11-13T10:35:50.007Z,101472.44
2022-11-13T10:38:33.063Z,101542.59
2022-11-13T10:41:12.339Z,101539.09
2022-11-13T10:43:55.362Z,101530.97
2022-11-13T10:46:26.037Z,101518.25
2022-11-13T10:48:54.267Z,101479.38
2022-11-13T10:51:27.416Z,101462.25
2022-11-13T10:53:56.076Z,101448.97
2022-11-13T10:56:37.648Z,101409.06
2022-11-13T10:59:12.230Z,101434.94
2022-11-13T11:01:42.821Z,101436.75
2022-11-13T11:04:15.185Z,101444.94
2022-11-13T11:07:18.272Z,101444.44
2022-11-13T11:09:34.265Z,101470.19
2022-11-13T11:12:16.322Z,101503.03
2022-11-13T11:14:59.996Z,101506.75
2022-11-13T11:17:32.990Z,101521.78
2022-11-13T11:23:00.001Z,101506.81
2022-11-13T11:25:37.311Z,101491.84
2022-11-13T11:28:15.928Z,101487.94
2022-11-13T11:30:51.043Z,101501.38
2022-11-13T11:33:26.975Z,101492.94
2022-11-13T11:36:02.021Z,101474.22
2022-11-13T11:38:36.886Z,101468.03
2022-11-13T11:41:16.045Z,101491.81
2022-11-13T11:43:47.333Z,101474.97
2022-11-13T11:46:22.577Z,101442.19
2022-11-13T11:48:52.434Z,101446.47
2022-11-13T11:51:26.709Z,101403.44
2022-11-13T11:54:07.253Z,101369.47
2022-11-13T11:56:38.554Z,101227.66
2022-11-13T11:59:37.840Z,100743.09
2022-11-13T12:02:39.011Z,101110.44
2022-11-13T12:05:22.214Z,101214.13
2022-11-13T12:08:11.195Z,101322.88
2022-11-13T12:10:47.374Z,101328.34
2022-11-13T12:13:28.293Z,101296.63
2022-11-13T12:16:03.227Z,101269.16
2022-11-13T12:18:42.831Z,101278.25
2022-11-13T12:21:23.414Z,101255.41
2022-11-13T12:24:15.700Z,101226.81
2022-11-13T12:26:52.619Z,101247.25
2022-11-13T12:29:40.813Z,101246.13
2022-11-13T12:32:22.169Z,101255.88
2022-11-13T12:34:53.570Z,101250.88
2022-11-13T12:37:30.724Z,101235.97
2022-11-13T12:40:05.003Z,101215.72
2022-11-13T12:42:36.066Z,101176.25
2022-11-13T12:45:15.265Z,101212.41
2022-11-13T12:47:44.803Z,101177.09
2022-11-13T12:50:31.449Z,101148.03
2022-11-13T12:53:03.855Z,101169.25
2022-11-13T12:55:34.753Z,101167.34
2022-11-13T12:58:10.908Z,101175.63
2022-11-13T13:00:42.094Z,101163.72
2022-11-13T13:03:27.419Z,101167.69
2022-11-13T13:06:10.523Z,101138.13
2022-11-13T13:08:50.500Z,101126.28
2022-11-13T13:11:27.208Z,101210.38
2022-11-13T13:14:07.373Z,101237.00
2022-11-13T13:16:35.489Z,101274.47
2022-11-13T13:19:26.989Z,101280.31
2022-11-13T13:21:55.402Z,101259.16
2022-11-13T13:24:33.850Z,101245.81
2022-11-13T13:27:02.307Z,101227.84
2022-11-13T13:29:31.988Z,101217.41
2022-11-13T13:32:19.331Z,101227.63
2022-11-13T13:34:59.880Z,101238.38
2022-11-13T13:37:39.011Z,101222.75
2022-11-13T13:40:22.563Z,101198.72
2022-11-13T13:43:05.294Z,101166.06
2022-11-13T13:45:46.549Z,101072.19
2022-11-13T13:48:18.941Z,100974.50
2022-11-13T13:50:48.617Z,101026.94
2022-11-13T13:53:23.052Z,101118.41
2022-11-13T13:55:55.431Z,101166.53
2022-11-13T13:58:29.360Z,101196.84
2022-11-13T14:01:19.498Z,101228.94
2022-11-13T14:03:49.202Z,101250.44
2022-11-13T14:06:21.614Z,101247.63
2022-11-13T14:08:49.896Z,101249.00
2022-11-13T14:11:21.894Z,101283.31
2022-11-13T14:13:49.892Z,101242.84
2022-11-13T14:16:18.051Z,101220.84
2022-11-13T14:18:46.944Z,101186.47
2022-11-13T14:21:18.149Z,101170.16
2022-11-13T14:23:49.699Z,101194.63
2022-11-13T14:26:20.974Z,101188.28
2022-11-13T14:28:54.791Z,101213.78
2022-11-13T14:31:29.883Z,101199.59
2022-11-13T14:34:00.893Z,101201.44
2022-11-13T14:36:31.657Z,101136.88
2022-11-13T14:39:00.228Z,101066.03
2022-11-13T14:41:35.448Z,100979.22
2022-11-13T14:44:03.751Z,100677.28
2022-11-13T14:46:35.068Z,100566.16
2022-11-13T14:49:03.494Z,100891.97
2022-11-13T14:51:33.503Z,100176.81
2022-11-13T14:54:07.453Z,99905.69
2022-11-13T14:56:41.092Z,99563.56
2022-11-13T14:59:12.446Z,100567.41
2022-11-13T15:01:55.238Z,100950.53
2022-11-13T15:04:23.392Z,101102.72
2022-11-13T15:06:55.570Z,100994.28
2022-11-13T15:09:25.598Z,100964.09
2022-11-13T15:11:55.246Z,100938.16
2022-11-13T15:14:23.776Z,100921.78
2022-11-13T15:16:54.035Z,100929.22
2022-11-13T15:19:30.892Z,100941.59
2022-11-13T15:22:26.109Z,100970.00
2022-11-13T15:24:46.807Z,101004.06
2022-11-13T15:27:17.848Z,101023.22
2022-11-13T15:29:46.071Z,101167.16
2022-11-13T15:32:15.359Z,101274.41
2022-11-13T15:34:43.513Z,101332.88
2022-11-13T15:37:15.725Z,101401.94
2022-11-13T15:39:43.596Z,101474.16
2022-11-13T15:42:17.279Z,101555.53
2022-11-13T15:44:46.052Z,101633.84
2022-11-13T15:47:26.590Z,101646.19
2022-11-13T15:50:13.898Z,101694.88
2022-11-13T15:52:44.764Z,101785.66
2022-11-13T15:55:24.775Z,101872.81
2022-11-13T15:57:54.695Z,101909.06
2022-11-13T16:00:26.251Z,101931.06
2022-11-13T16:02:55.825Z,101934.50
2022-11-13T16:05:25.488Z,101940.69
2022-11-13T16:07:53.929Z,101971.53
2022-11-13T16:10:24.919Z,101981.34
2022-11-13T16:12:55.461Z,101988.25
2022-11-13T16:15:23.561Z,102015.66
2022-11-13T16:17:55.130Z,102031.38
2022-11-13T16:20:22.980Z,102041.69
2022-11-13T16:22:52.814Z,102031.19
2022-11-13T16:25:22.769Z,102045.47
2022-11-13T16:27:51.970Z,102043.81
2022-11-13T16:30:24.877Z,102042.84
2022-11-13T16:32:52.790Z,102047.16
2022-11-13T16:35:26.406Z,102042.84
2022-11-13T16:37:56.958Z,102047.94
2022-11-13T16:40:26.623Z,102036.50
2022-11-13T16:42:54.928Z,102029.72
2022-11-13T16:45:26.663Z,102029.00
2022-11-13T16:47:54.501Z,102020.28
2022-11-13T16:50:24.585Z,102034.47
2022-11-13T16:52:52.510Z,102039.69
2022-11-13T16:55:20.884Z,102080.03
2022-11-13T16:57:49.411Z,102094.88
2022-11-13T17:00:19.589Z,102094.94
2022-11-13T17:02:51.390Z,102070.22
2022-11-13T17:05:21.026Z,102034.84
2022-11-13T17:07:50.833Z,101966.06
2022-11-13T17:10:37.055Z,101871.03
2022-11-13T17:13:05.171Z,101811.41
2022-11-13T17:15:33.314Z,101760.41
2022-11-13T17:18:03.074Z,101725.19
2022-11-13T17:20:31.074Z,101665.41
2022-11-13T17:22:59.315Z,101600.81
2022-11-13T17:25:28.266Z,101524.59
2022-11-13T17:27:56.140Z,101472.84
2022-11-13T17:30:24.144Z,101441.00
2022-11-13T17:32:52.103Z,101378.63
2022-11-13T17:35:21.426Z,101345.28
2022-11-13T17:37:49.285Z,101310.25
2022-11-13T17:40:17.603Z,101264.28
2022-11-13T17:42:48.132Z,101205.38
2022-11-13T17:45:16.533Z,101162.72
2022-11-13T17:47:44.616Z,101180.19
2022-11-13T17:50:12.610Z,101195.66
2022-11-13T17:52:42.173Z,101253.75
2022-11-13T17:55:13.156Z,101282.59
2022-11-13T17:57:43.084Z,101266.91
2022-11-13T18:00:12.275Z,101254.28
2022-11-13T18:02:40.626Z,101235.31
2022-11-13T18:05:09.945Z,101257.53
2022-11-13T18:07:38.098Z,101302.59
2022-11-13T18:10:08.841Z,101357.84
2022-11-13T18:12:36.822Z,101390.47
2022-11-13T18:15:05.161Z,101431.84
2022-11-13T18:17:33.451Z,101447.75
2022-11-13T18:20:02.407Z,101475.91
2022-11-13T18:22:31.162Z,101492.34
2022-11-13T18:24:59.356Z,101479.13
2022-11-13T18:27:38.780Z,101463.56
2022-11-13T18:30:22.555Z,101445.50
2022-11-13T18:32:50.692Z,101487.50
2022-11-13T18:35:19.765Z,101504.06
2022-11-13T18:37:52.224Z,101514.56
2022-11-13T18:40:20.321Z,101509.34
2022-11-13T18:42:58.141Z,101521.81
2022-11-13T18:45:27.714Z,101526.13
2022-11-13T18:47:56.142Z,101515.88
2022-11-13T18:50:37.461Z,101542.97
2022-11-13T18:53:05.589Z,101537.91
2022-11-13T18:55:33.576Z,101564.19
2022-11-13T18:58:04.358Z,101547.75
2022-11-13T19:00:37.803Z,101593.28
2022-11-13T19:03:09.588Z,101604.75
2022-11-13T19:05:38.267Z,101603.00
2022-11-13T19:08:20.672Z,101595.22
2022-11-13T19:10:58.783Z,101598.81
2022-11-13T19:13:28.553Z,101622.50
2022-11-13T19:15:56.502Z,101651.44
2022-11-13T19:18:26.350Z,101653.28
2022-11-13T19:20:54.604Z,101679.69
2022-11-13T19:23:27.247Z,101698.13
2022-11-13T19:25:58.222Z,101701.66
2022-11-13T19:28:28.997Z,101715.72
2022-11-13T19:31:00.775Z,101750.78
2022-11-13T19:33:29.972Z,101794.63
2022-11-13T19:35:57.962Z,101808.66
2022-11-13T19:38:32.598Z,101821.78
2022-11-13T19:41:00.596Z,101852.50
2022-11-13T19:43:28.432Z,101855.16
2022-11-13T19:46:06.870Z,101877.94
2022-11-13T19:48:35.853Z,101909.53
2022-11-13T19:51:04.593Z,101906.00
2022-11-13T19:53:38.525Z,101936.69
2022-11-13T19:56:10.764Z,101951.59
2022-11-13T19:58:42.973Z,101974.38
2022-11-13T20:01:15.241Z,102018.19
2022-11-13T20:04:00.059Z,102097.94
2022-11-13T20:06:32.634Z,102182.94
2022-11-13T20:09:01.441Z,102181.16
2022-11-13T20:11:38.587Z,102163.56
2022-11-13T20:14:06.565Z,102167.97
2022-11-13T20:16:36.333Z,102236.25
2022-11-13T20:19:04.343Z,102242.34
2022-11-13T20:21:35.311Z,102233.59
2022-11-13T20:24:03.551Z,102192.38
2022-11-13T20:26:31.488Z,102229.94
2022-11-13T20:28:59.538Z,102213.34
2022-11-13T20:31:27.849Z,102189.69
2022-11-13T20:34:00.852Z,102168.72
2022-11-13T20:36:28.745Z,102138.94
2022-11-13T20:38:58.112Z,102145.94
2022-11-13T20:41:26.469Z,102125.78
2022-11-13T20:43:55.894Z,102102.13
2022-11-13T20:46:24.287Z,102082.88
2022-11-13T20:48:52.599Z,102058.38
2022-11-13T20:51:23.560Z,102018.97
2022-11-13T20:53:51.847Z,102021.59
2022-11-13T20:56:21.404Z,101992.69
2022-11-13T20:58:49.749Z,101970.78
2022-11-13T21:01:19.324Z,101916.50
2022-11-13T21:03:48.284Z,101930.53
2022-11-13T21:06:18.504Z,101917.38
2022-11-13T21:08:51.080Z,101887.63
2022-11-13T21:11:21.995Z,101873.59
2022-11-13T21:13:51.276Z,101842.97
2022-11-13T21:16:20.177Z,101835.09
2022-11-13T21:18:48.129Z,101783.44
2022-11-13T21:21:18.803Z,101686.28
2022-11-13T21:23:48.731Z,101668.78
2022-11-13T21:26:17.756Z,101646.00
2022-11-13T21:28:46.207Z,101652.13
2022-11-13T21:31:16.811Z,101641.63
2022-11-13T21:33:46.130Z,101646.00
2022-11-13T21:36:16.199Z,101641.63
2022-11-13T21:38:44.531Z,101636.38
2022-11-13T21:41:28.188Z,101639.84
2022-11-13T21:44:02.133Z,101630.19
2022-11-13T21:46:31.790Z,101625.81
2022-11-13T21:49:02.446Z,101621.44
2022-11-13T21:51:34.602Z,101615.31
2022-11-13T21:54:02.729Z,101610.94
2022-11-13T21:56:34.156Z,101605.66
2022-11-13T21:59:02.305Z,101617.91
2022-11-13T22:01:38.094Z,101611.78
2022-11-13T22:04:07.297Z,101612.59
2022-11-13T22:06:36.787Z,101611.72
2022-11-13T22:09:07.124Z,101613.47
2022-11-13T22:11:37.667Z,101612.59
2022-11-13T22:14:06.349Z,101613.47
2022-11-13T22:16:38.455Z,101619.56
2022-11-13T22:19:10.977Z,101622.19
2022-11-13T22:21:39.887Z,101606.41
2022-11-13T22:24:08.810Z,101610.78
2022-11-13T22:26:39.950Z,101604.59
2022-11-13T22:29:08.268Z,101600.22
2022-11-13T22:31:38.270Z,101590.56
2022-11-13T22:34:06.703Z,101589.69
2022-11-13T22:36:37.678Z,101587.88
2022-11-13T22:39:06.379Z,101583.50
2022-11-13T22:41:36.345Z,101584.38
2022-11-13T22:44:07.658Z,101571.19
2022-11-13T22:46:37.257Z,101567.66
2022-11-13T22:49:07.126Z,101554.50
2022-11-13T22:51:38.059Z,101555.34
2022-11-13T22:54:07.857Z,101548.31
2022-11-13T22:56:39.879Z,101545.69
2022-11-13T22:59:11.433Z,101541.28
2022-11-13T23:01:42.930Z,101522.88
2022-11-13T23:04:15.309Z,101525.50
2022-11-13T23:06:44.313Z,101511.50
2022-11-13T23:09:12.156Z,101515.88
2022-11-13T23:11:42.420Z,101525.41
2022-11-13T23:14:14.074Z,101519.28
2022-11-13T23:16:41.887Z,101512.25
2022-11-13T23:19:10.745Z,101512.25
2022-11-13T23:21:38.889Z,101496.50
2022-11-13T23:24:09.995Z,101493.88
2022-11-13T23:26:38.071Z,101502.59
2022-11-13T23:29:06.079Z,101487.69
2022-11-13T23:31:35.429Z,101486.78
2022-11-13T23:34:03.870Z,101477.16
2022-11-13T23:36:31.812Z,101481.50
2022-11-13T23:38:59.741Z,101476.28
2022-11-13T23:41:27.717Z,101476.22
2022-11-13T23:44:08.894Z,101475.34
2022-11-13T23:46:38.925Z,101474.47
2022-11-13T23:49:07.191Z,101459.50
2022-11-13T23:51:35.156Z,101458.63
2022-11-13T23:54:03.088Z,101457.72
2022-11-13T23:56:30.912Z,101458.59
2022-11-13T23:58:58.724Z,101457.69
